sensor_id;sensor_type;location;lat;lon;timestamp;temperature;humidity
22436;DHT22;11385;50.822;4.324;2022-12-07T00:01:23;6.10;99.90
22436;DHT22;11385;50.822;4.324;2022-12-07T00:03:51;6.10;99.90
22436;DHT22;11385;50.822;4.324;2022-12-07T00:06:19;6.00;99.90
22436;DHT22;11385;50.822;4.324;2022-12-07T00:08:47;5.70;99.90
22436;DHT22;11385;50.822;4.324;2022-12-07T00:11:18;5.70;99.90
22436;DHT22;11385;50.822;4.324;2022-12-07T00:13:45;5.70;99.90
22436;DHT22;11385;50.822;4.324;2022-12-07T00:16:16;5.60;99.90
22436;DHT22;11385;50.822;4.324;2022-12-07T00:18:45;5.60;99.90
22436;DHT22;11385;50.822;4.324;2022-12-07T00:21:15;5.60;99.90
22436;DHT22;11385;50.822;4.324;2022-12-07T00:23:43;5.60;99.90
22436;DHT22;11385;50.822;4.324;2022-12-07T00:26:19;5.60;99.90
22436;DHT22;11385;50.822;4.324;2022-12-07T00:28:48;5.60;99.90
22436;DHT22;11385;50.822;4.324;2022-12-07T00:31:16;5.60;99.90
22436;DHT22;11385;50.822;4.324;2022-12-07T00:33:44;5.60;99.90
22436;DHT22;11385;50.822;4.324;2022-12-07T00:36:13;5.50;99.90
22436;DHT22;11385;50.822;4.324;2022-12-07T00:38:40;5.50;99.90
22436;DHT22;11385;50.822;4.324;2022-12-07T00:41:12;5.40;99.90
22436;DHT22;11385;50.822;4.324;2022-12-07T00:43:40;5.40;99.90
22436;DHT22;11385;50.822;4.324;2022-12-07T00:46:08;5.40;99.90
22436;DHT22;11385;50.822;4.324;2022-12-07T00:48:35;5.40;99.90
22436;DHT22;11385;50.822;4.324;2022-12-07T00:51:02;5.40;99.90
22436;DHT22;11385;50.822;4.324;2022-12-07T00:53:29;5.50;99.90
22436;DHT22;11385;50.822;4.324;2022-12-07T00:55:56;5.40;99.90
22436;DHT22;11385;50.822;4.324;2022-12-07T00:58:23;5.30;99.90
22436;DHT22;11385;50.822;4.324;2022-12-07T01:00:50;5.40;99.90
22436;DHT22;11385;50.822;4.324;2022-12-07T01:03:17;5.30;99.90
22436;DHT22;11385;50.822;4.324;2022-12-07T01:05:51;5.30;99.90
22436;DHT22;11385;50.822;4.324;2022-12-07T01:08:17;5.30;99.90
22436;DHT22;11385;50.822;4.324;2022-12-07T01:10:44;5.30;99.90
22436;DHT22;11385;50.822;4.324;2022-12-07T01:13:11;5.20;99.90
22436;DHT22;11385;50.822;4.324;2022-12-07T01:15:42;5.00;99.90
22436;DHT22;11385;50.822;4.324;2022-12-07T01:18:09;5.10;99.90
22436;DHT22;11385;50.822;4.324;2022-12-07T01:20:36;4.90;99.90
22436;DHT22;11385;50.822;4.324;2022-12-07T01:23:02;4.90;99.90
22436;DHT22;11385;50.822;4.324;2022-12-07T01:25:29;4.90;99.90
22436;DHT22;11385;50.822;4.324;2022-12-07T01:27:56;4.90;99.90
22436;DHT22;11385;50.822;4.324;2022-12-07T01:30:22;4.80;99.90
22436;DHT22;11385;50.822;4.324;2022-12-07T01:32:49;4.90;99.90
22436;DHT22;11385;50.822;4.324;2022-12-07T01:35:16;4.90;99.90
22436;DHT22;11385;50.822;4.324;2022-12-07T01:37:43;5.00;99.90
22436;DHT22;11385;50.822;4.324;2022-12-07T01:40:10;5.00;99.90
22436;DHT22;11385;50.822;4.324;2022-12-07T01:42:37;5.00;99.90
22436;DHT22;11385;50.822;4.324;2022-12-07T01:47:45;4.80;99.90
22436;DHT22;11385;50.822;4.324;2022-12-07T01:50:12;4.90;99.90
22436;DHT22;11385;50.822;4.324;2022-12-07T01:52:40;5.00;99.90
22436;DHT22;11385;50.822;4.324;2022-12-07T01:55:10;5.00;99.90
22436;DHT22;11385;50.822;4.324;2022-12-07T01:57:41;5.00;99.90
22436;DHT22;11385;50.822;4.324;2022-12-07T02:00:10;4.90;99.90
22436;DHT22;11385;50.822;4.324;2022-12-07T02:02:41;5.00;99.90
22436;DHT22;11385;50.822;4.324;2022-12-07T02:05:07;5.00;99.90
22436;DHT22;11385;50.822;4.324;2022-12-07T02:07:36;5.10;99.90
22436;DHT22;11385;50.822;4.324;2022-12-07T02:10:15;5.10;99.90
22436;DHT22;11385;50.822;4.324;2022-12-07T02:12:43;5.20;99.90
22436;DHT22;11385;50.822;4.324;2022-12-07T02:15:11;5.30;99.90
22436;DHT22;11385;50.822;4.324;2022-12-07T02:18:04;5.20;99.90
22436;DHT22;11385;50.822;4.324;2022-12-07T02:20:36;5.30;99.90
22436;DHT22;11385;50.822;4.324;2022-12-07T02:23:22;5.40;99.90
22436;DHT22;11385;50.822;4.324;2022-12-07T02:25:59;5.40;99.90
22436;DHT22;11385;50.822;4.324;2022-12-07T02:28:30;5.30;99.90
22436;DHT22;11385;50.822;4.324;2022-12-07T02:31:02;5.10;99.90
22436;DHT22;11385;50.822;4.324;2022-12-07T02:33:30;5.10;99.90
22436;DHT22;11385;50.822;4.324;2022-12-07T02:36:16;5.10;99.90
22436;DHT22;11385;50.822;4.324;2022-12-07T02:38:48;5.20;99.90
22436;DHT22;11385;50.822;4.324;2022-12-07T02:41:22;5.30;99.90
22436;DHT22;11385;50.822;4.324;2022-12-07T02:43:54;5.30;99.90
22436;DHT22;11385;50.822;4.324;2022-12-07T02:46:25;5.30;99.90
22436;DHT22;11385;50.822;4.324;2022-12-07T02:48:53;5.40;99.90
22436;DHT22;11385;50.822;4.324;2022-12-07T02:51:22;5.40;99.90
22436;DHT22;11385;50.822;4.324;2022-12-07T02:53:48;5.30;99.90
22436;DHT22;11385;50.822;4.324;2022-12-07T02:56:27;5.20;99.90
22436;DHT22;11385;50.822;4.324;2022-12-07T03:01:56;5.10;99.90
22436;DHT22;11385;50.822;4.324;2022-12-07T03:04:42;5.10;99.90
22436;DHT22;11385;50.822;4.324;2022-12-07T03:07:21;5.00;99.90
22436;DHT22;11385;50.822;4.324;2022-12-07T03:09:57;5.00;99.90
22436;DHT22;11385;50.822;4.324;2022-12-07T03:12:29;4.90;99.90
22436;DHT22;11385;50.822;4.324;2022-12-07T03:15:01;4.90;99.90
22436;DHT22;11385;50.822;4.324;2022-12-07T03:17:30;4.80;99.90
22436;DHT22;11385;50.822;4.324;2022-12-07T03:20:00;4.70;99.90
22436;DHT22;11385;50.822;4.324;2022-12-07T03:22:29;4.70;99.90
22436;DHT22;11385;50.822;4.324;2022-12-07T03:24:59;4.70;99.90
22436;DHT22;11385;50.822;4.324;2022-12-07T03:27:31;4.60;99.90
22436;DHT22;11385;50.822;4.324;2022-12-07T03:30:00;4.60;99.90
22436;DHT22;11385;50.822;4.324;2022-12-07T03:32:38;4.80;99.90
22436;DHT22;11385;50.822;4.324;2022-12-07T03:35:14;4.80;99.90
22436;DHT22;11385;50.822;4.324;2022-12-07T03:37:48;4.80;99.90
22436;DHT22;11385;50.822;4.324;2022-12-07T03:40:22;4.80;99.90
22436;DHT22;11385;50.822;4.324;2022-12-07T03:42:50;4.90;99.90
22436;DHT22;11385;50.822;4.324;2022-12-07T03:45:18;4.90;99.90
22436;DHT22;11385;50.822;4.324;2022-12-07T03:47:58;4.90;99.90
22436;DHT22;11385;50.822;4.324;2022-12-07T03:53:25;4.80;99.90
22436;DHT22;11385;50.822;4.324;2022-12-07T03:55:54;4.80;99.90
22436;DHT22;11385;50.822;4.324;2022-12-07T03:58:22;4.80;99.90
22436;DHT22;11385;50.822;4.324;2022-12-07T04:00:50;4.70;99.90
22436;DHT22;11385;50.822;4.324;2022-12-07T04:03:17;4.70;99.90
22436;DHT22;11385;50.822;4.324;2022-12-07T04:05:44;4.60;99.90
22436;DHT22;11385;50.822;4.324;2022-12-07T04:08:11;4.70;99.90
22436;DHT22;11385;50.822;4.324;2022-12-07T04:10:38;4.60;99.90
22436;DHT22;11385;50.822;4.324;2022-12-07T04:13:05;4.60;99.90
22436;DHT22;11385;50.822;4.324;2022-12-07T04:15:31;4.60;99.90
22436;DHT22;11385;50.822;4.324;2022-12-07T04:17:58;4.60;99.90
22436;DHT22;11385;50.822;4.324;2022-12-07T04:20:25;4.60;99.90
22436;DHT22;11385;50.822;4.324;2022-12-07T04:22:51;4.60;99.90
22436;DHT22;11385;50.822;4.324;2022-12-07T04:25:18;4.50;99.90
22436;DHT22;11385;50.822;4.324;2022-12-07T04:27:45;4.50;99.90
22436;DHT22;11385;50.822;4.324;2022-12-07T04:30:11;4.60;99.90
22436;DHT22;11385;50.822;4.324;2022-12-07T04:32:38;4.50;99.90
22436;DHT22;11385;50.822;4.324;2022-12-07T04:35:05;4.60;99.90
22436;DHT22;11385;50.822;4.324;2022-12-07T04:37:32;4.60;99.90
22436;DHT22;11385;50.822;4.324;2022-12-07T04:39:59;4.50;99.90
22436;DHT22;11385;50.822;4.324;2022-12-07T04:42:25;4.60;99.90
22436;DHT22;11385;50.822;4.324;2022-12-07T04:44:52;4.60;99.90
22436;DHT22;11385;50.822;4.324;2022-12-07T04:47:18;4.70;99.90
22436;DHT22;11385;50.822;4.324;2022-12-07T04:49:45;4.70;99.90
22436;DHT22;11385;50.822;4.324;2022-12-07T04:52:12;4.70;99.90
22436;DHT22;11385;50.822;4.324;2022-12-07T04:54:38;4.80;99.90
22436;DHT22;11385;50.822;4.324;2022-12-07T04:57:05;4.80;99.90
22436;DHT22;11385;50.822;4.324;2022-12-07T04:59:32;4.80;99.90
22436;DHT22;11385;50.822;4.324;2022-12-07T05:01:58;4.80;99.90
22436;DHT22;11385;50.822;4.324;2022-12-07T05:04:25;4.80;99.90
22436;DHT22;11385;50.822;4.324;2022-12-07T05:06:52;4.90;99.90
22436;DHT22;11385;50.822;4.324;2022-12-07T05:09:18;4.80;99.90
22436;DHT22;11385;50.822;4.324;2022-12-07T05:11:45;4.70;99.90
22436;DHT22;11385;50.822;4.324;2022-12-07T05:14:16;4.50;99.90
22436;DHT22;11385;50.822;4.324;2022-12-07T05:16:44;4.60;99.90
22436;DHT22;11385;50.822;4.324;2022-12-07T05:19:11;4.60;99.90
22436;DHT22;11385;50.822;4.324;2022-12-07T05:21:39;4.60;99.90
22436;DHT22;11385;50.822;4.324;2022-12-07T05:24:07;4.60;99.90
22436;DHT22;11385;50.822;4.324;2022-12-07T05:26:34;4.60;99.90
22436;DHT22;11385;50.822;4.324;2022-12-07T05:29:00;4.60;99.90
22436;DHT22;11385;50.822;4.324;2022-12-07T05:31:27;4.50;99.90
22436;DHT22;11385;50.822;4.324;2022-12-07T05:33:54;4.60;99.90
22436;DHT22;11385;50.822;4.324;2022-12-07T05:36:22;4.60;99.90
22436;DHT22;11385;50.822;4.324;2022-12-07T05:38:49;4.70;99.90
22436;DHT22;11385;50.822;4.324;2022-12-07T05:41:17;4.70;99.90
22436;DHT22;11385;50.822;4.324;2022-12-07T05:43:50;4.80;99.90
22436;DHT22;11385;50.822;4.324;2022-12-07T05:46:16;4.80;99.90
22436;DHT22;11385;50.822;4.324;2022-12-07T05:48:43;4.80;99.90
22436;DHT22;11385;50.822;4.324;2022-12-07T05:51:09;4.70;99.90
22436;DHT22;11385;50.822;4.324;2022-12-07T05:53:36;4.70;99.90
22436;DHT22;11385;50.822;4.324;2022-12-07T05:56:03;4.70;99.90
22436;DHT22;11385;50.822;4.324;2022-12-07T05:58:29;4.70;99.90
22436;DHT22;11385;50.822;4.324;2022-12-07T06:01:02;4.60;99.90
22436;DHT22;11385;50.822;4.324;2022-12-07T06:03:28;4.70;99.90
22436;DHT22;11385;50.822;4.324;2022-12-07T06:05:55;4.70;99.90
22436;DHT22;11385;50.822;4.324;2022-12-07T06:08:22;4.70;99.90
22436;DHT22;11385;50.822;4.324;2022-12-07T06:10:48;4.80;99.90
22436;DHT22;11385;50.822;4.324;2022-12-07T06:13:17;4.80;99.90
22436;DHT22;11385;50.822;4.324;2022-12-07T06:15:43;4.80;99.90
22436;DHT22;11385;50.822;4.324;2022-12-07T06:18:10;4.80;99.90
22436;DHT22;11385;50.822;4.324;2022-12-07T06:20:36;4.80;99.90
22436;DHT22;11385;50.822;4.324;2022-12-07T06:23:03;4.80;99.90
22436;DHT22;11385;50.822;4.324;2022-12-07T06:25:30;4.80;99.90
22436;DHT22;11385;50.822;4.324;2022-12-07T06:27:56;4.70;99.90
22436;DHT22;11385;50.822;4.324;2022-12-07T06:30:23;4.70;99.90
22436;DHT22;11385;50.822;4.324;2022-12-07T06:32:49;4.80;99.90
22436;DHT22;11385;50.822;4.324;2022-12-07T06:35:16;4.70;99.90
22436;DHT22;11385;50.822;4.324;2022-12-07T06:37:43;4.80;99.90
22436;DHT22;11385;50.822;4.324;2022-12-07T06:40:09;4.80;99.90
22436;DHT22;11385;50.822;4.324;2022-12-07T06:42:36;4.80;99.90
22436;DHT22;11385;50.822;4.324;2022-12-07T06:45:03;4.80;99.90
22436;DHT22;11385;50.822;4.324;2022-12-07T06:47:29;4.80;99.90
22436;DHT22;11385;50.822;4.324;2022-12-07T06:49:56;4.80;99.90
22436;DHT22;11385;50.822;4.324;2022-12-07T06:52:23;4.70;99.90
22436;DHT22;11385;50.822;4.324;2022-12-07T06:54:49;4.70;99.90
22436;DHT22;11385;50.822;4.324;2022-12-07T06:57:16;4.60;99.90
22436;DHT22;11385;50.822;4.324;2022-12-07T06:59:42;4.60;99.90
22436;DHT22;11385;50.822;4.324;2022-12-07T07:02:09;4.70;99.90
22436;DHT22;11385;50.822;4.324;2022-12-07T07:04:36;4.70;99.90
22436;DHT22;11385;50.822;4.324;2022-12-07T07:07:03;4.80;99.90
22436;DHT22;11385;50.822;4.324;2022-12-07T07:09:30;4.80;99.90
22436;DHT22;11385;50.822;4.324;2022-12-07T07:11:56;4.80;99.90
22436;DHT22;11385;50.822;4.324;2022-12-07T07:14:23;4.80;99.90
22436;DHT22;11385;50.822;4.324;2022-12-07T07:16:49;4.80;99.90
22436;DHT22;11385;50.822;4.324;2022-12-07T07:19:16;4.80;99.90
22436;DHT22;11385;50.822;4.324;2022-12-07T07:21:43;4.80;99.90
22436;DHT22;11385;50.822;4.324;2022-12-07T07:24:09;4.90;99.90
22436;DHT22;11385;50.822;4.324;2022-12-07T07:26:36;4.90;99.90
22436;DHT22;11385;50.822;4.324;2022-12-07T07:29:03;5.00;99.90
22436;DHT22;11385;50.822;4.324;2022-12-07T07:31:29;5.10;99.90
22436;DHT22;11385;50.822;4.324;2022-12-07T07:33:56;5.10;99.90
22436;DHT22;11385;50.822;4.324;2022-12-07T07:36:23;5.10;99.90
22436;DHT22;11385;50.822;4.324;2022-12-07T07:38:49;5.00;99.90
22436;DHT22;11385;50.822;4.324;2022-12-07T07:41:16;5.00;99.90
22436;DHT22;11385;50.822;4.324;2022-12-07T07:43:42;5.00;99.90
22436;DHT22;11385;50.822;4.324;2022-12-07T07:46:09;5.10;99.90
22436;DHT22;11385;50.822;4.324;2022-12-07T07:48:36;5.10;99.90
22436;DHT22;11385;50.822;4.324;2022-12-07T07:51:06;5.10;99.90
22436;DHT22;11385;50.822;4.324;2022-12-07T07:53:33;5.20;99.90
22436;DHT22;11385;50.822;4.324;2022-12-07T07:56:00;5.20;99.90
22436;DHT22;11385;50.822;4.324;2022-12-07T07:58:27;5.30;99.90
22436;DHT22;11385;50.822;4.324;2022-12-07T08:00:54;5.30;99.90
22436;DHT22;11385;50.822;4.324;2022-12-07T08:03:20;5.20;99.90
22436;DHT22;11385;50.822;4.324;2022-12-07T08:05:47;4.90;99.90
22436;DHT22;11385;50.822;4.324;2022-12-07T08:08:14;4.80;99.90
22436;DHT22;11385;50.822;4.324;2022-12-07T08:10:41;4.80;99.90
22436;DHT22;11385;50.822;4.324;2022-12-07T08:13:08;4.70;99.90
22436;DHT22;11385;50.822;4.324;2022-12-07T08:15:39;4.70;99.90
22436;DHT22;11385;50.822;4.324;2022-12-07T08:18:06;4.70;99.90
22436;DHT22;11385;50.822;4.324;2022-12-07T08:20:35;4.70;99.90
22436;DHT22;11385;50.822;4.324;2022-12-07T08:23:02;4.70;99.90
22436;DHT22;11385;50.822;4.324;2022-12-07T08:25:29;4.70;99.90
22436;DHT22;11385;50.822;4.324;2022-12-07T08:27:56;4.70;99.90
22436;DHT22;11385;50.822;4.324;2022-12-07T08:30:23;4.70;99.90
22436;DHT22;11385;50.822;4.324;2022-12-07T08:32:49;4.80;99.90
22436;DHT22;11385;50.822;4.324;2022-12-07T08:35:16;4.70;99.90
22436;DHT22;11385;50.822;4.324;2022-12-07T08:37:43;4.70;99.90
22436;DHT22;11385;50.822;4.324;2022-12-07T08:40:11;4.70;99.90
22436;DHT22;11385;50.822;4.324;2022-12-07T08:42:41;4.80;99.90
22436;DHT22;11385;50.822;4.324;2022-12-07T08:45:11;4.80;99.90
22436;DHT22;11385;50.822;4.324;2022-12-07T08:47:44;4.90;99.90
22436;DHT22;11385;50.822;4.324;2022-12-07T08:50:11;5.00;99.90
22436;DHT22;11385;50.822;4.324;2022-12-07T08:52:39;5.10;99.90
22436;DHT22;11385;50.822;4.324;2022-12-07T08:55:10;5.30;99.90
22436;DHT22;11385;50.822;4.324;2022-12-07T08:57:37;5.30;99.90
22436;DHT22;11385;50.822;4.324;2022-12-07T09:00:05;5.20;99.90
22436;DHT22;11385;50.822;4.324;2022-12-07T09:02:32;5.40;99.90
22436;DHT22;11385;50.822;4.324;2022-12-07T09:04:59;5.30;99.90
22436;DHT22;11385;50.822;4.324;2022-12-07T09:07:26;5.30;99.90
22436;DHT22;11385;50.822;4.324;2022-12-07T09:09:53;5.50;99.90
22436;DHT22;11385;50.822;4.324;2022-12-07T09:12:20;5.50;99.90
22436;DHT22;11385;50.822;4.324;2022-12-07T09:14:46;5.60;99.90
22436;DHT22;11385;50.822;4.324;2022-12-07T09:17:13;5.70;99.90
22436;DHT22;11385;50.822;4.324;2022-12-07T09:19:40;5.70;99.90
22436;DHT22;11385;50.822;4.324;2022-12-07T09:22:08;5.70;99.90
22436;DHT22;11385;50.822;4.324;2022-12-07T09:24:35;5.70;99.90
22436;DHT22;11385;50.822;4.324;2022-12-07T09:27:02;5.80;99.90
22436;DHT22;11385;50.822;4.324;2022-12-07T09:29:28;5.90;99.90
22436;DHT22;11385;50.822;4.324;2022-12-07T09:31:55;5.90;99.90
22436;DHT22;11385;50.822;4.324;2022-12-07T09:34:21;6.00;99.90
22436;DHT22;11385;50.822;4.324;2022-12-07T09:36:48;6.00;99.90
22436;DHT22;11385;50.822;4.324;2022-12-07T09:39:15;5.90;99.90
22436;DHT22;11385;50.822;4.324;2022-12-07T09:41:43;5.90;99.90
22436;DHT22;11385;50.822;4.324;2022-12-07T09:44:14;5.90;99.90
22436;DHT22;11385;50.822;4.324;2022-12-07T09:46:43;6.10;99.90
22436;DHT22;11385;50.822;4.324;2022-12-07T09:49:16;6.10;99.90
22436;DHT22;11385;50.822;4.324;2022-12-07T09:51:43;6.30;99.90
22436;DHT22;11385;50.822;4.324;2022-12-07T09:54:14;6.40;99.90
22436;DHT22;11385;50.822;4.324;2022-12-07T09:56:43;6.40;99.90
22436;DHT22;11385;50.822;4.324;2022-12-07T09:59:13;6.40;99.90
22436;DHT22;11385;50.822;4.324;2022-12-07T10:01:41;6.30;99.90
22436;DHT22;11385;50.822;4.324;2022-12-07T10:04:12;6.40;99.90
22436;DHT22;11385;50.822;4.324;2022-12-07T10:06:40;6.30;99.90
22436;DHT22;11385;50.822;4.324;2022-12-07T10:09:13;6.30;99.90
22436;DHT22;11385;50.822;4.324;2022-12-07T10:14:19;6.50;99.90
22436;DHT22;11385;50.822;4.324;2022-12-07T10:16:47;6.30;99.90
22436;DHT22;11385;50.822;4.324;2022-12-07T10:19:24;6.40;99.90
22436;DHT22;11385;50.822;4.324;2022-12-07T10:21:59;6.30;99.90
22436;DHT22;11385;50.822;4.324;2022-12-07T10:24:27;6.40;99.90
22436;DHT22;11385;50.822;4.324;2022-12-07T10:26:53;6.50;99.90
22436;DHT22;11385;50.822;4.324;2022-12-07T10:29:24;6.60;99.90
22436;DHT22;11385;50.822;4.324;2022-12-07T10:31:56;6.80;99.90
22436;DHT22;11385;50.822;4.324;2022-12-07T10:34:28;7.00;99.90
22436;DHT22;11385;50.822;4.324;2022-12-07T10:39:49;7.10;99.90
22436;DHT22;11385;50.822;4.324;2022-12-07T10:42:22;7.30;99.90
22436;DHT22;11385;50.822;4.324;2022-12-07T10:45:22;7.30;99.90
22436;DHT22;11385;50.822;4.324;2022-12-07T10:47:42;7.30;99.90
22436;DHT22;11385;50.822;4.324;2022-12-07T10:55:41;7.00;99.90
22436;DHT22;11385;50.822;4.324;2022-12-07T10:58:19;7.20;99.90
22436;DHT22;11385;50.822;4.324;2022-12-07T11:00:50;7.40;99.90
22436;DHT22;11385;50.822;4.324;2022-12-07T11:03:29;7.40;99.90
22436;DHT22;11385;50.822;4.324;2022-12-07T11:06:07;7.50;99.90
22436;DHT22;11385;50.822;4.324;2022-12-07T11:08:44;7.50;99.90
22436;DHT22;11385;50.822;4.324;2022-12-07T11:11:26;7.60;99.90
22436;DHT22;11385;50.822;4.324;2022-12-07T11:14:01;7.60;99.90
22436;DHT22;11385;50.822;4.324;2022-12-07T11:17:20;7.80;99.90
22436;DHT22;11385;50.822;4.324;2022-12-07T11:19:43;7.80;99.90
22436;DHT22;11385;50.822;4.324;2022-12-07T11:22:31;7.80;99.90
22436;DHT22;11385;50.822;4.324;2022-12-07T11:25:07;7.50;99.90
22436;DHT22;11385;50.822;4.324;2022-12-07T11:27:47;7.30;99.90
22436;DHT22;11385;50.822;4.324;2022-12-07T11:30:17;7.20;99.90
22436;DHT22;11385;50.822;4.324;2022-12-07T11:33:11;7.10;99.90
22436;DHT22;11385;50.822;4.324;2022-12-07T11:38:38;6.90;99.90
22436;DHT22;11385;50.822;4.324;2022-12-07T11:41:05;6.70;99.90
22436;DHT22;11385;50.822;4.324;2022-12-07T11:46:31;6.50;99.90
22436;DHT22;11385;50.822;4.324;2022-12-07T11:49:02;6.60;99.90
22436;DHT22;11385;50.822;4.324;2022-12-07T11:51:33;6.50;99.90
22436;DHT22;11385;50.822;4.324;2022-12-07T11:54:10;6.60;99.90
22436;DHT22;11385;50.822;4.324;2022-12-07T11:56:35;6.60;99.90
22436;DHT22;11385;50.822;4.324;2022-12-07T11:59:12;6.90;99.90
22436;DHT22;11385;50.822;4.324;2022-12-07T12:02:13;6.90;99.90
22436;DHT22;11385;50.822;4.324;2022-12-07T12:04:53;7.10;99.90
22436;DHT22;11385;50.822;4.324;2022-12-07T12:07:22;7.40;99.90
22436;DHT22;11385;50.822;4.324;2022-12-07T12:09:54;7.40;99.90
22436;DHT22;11385;50.822;4.324;2022-12-07T12:12:47;7.60;99.90
22436;DHT22;11385;50.822;4.324;2022-12-07T12:20:54;7.80;99.90
22436;DHT22;11385;50.822;4.324;2022-12-07T12:23:40;7.80;99.90
22436;DHT22;11385;50.822;4.324;2022-12-07T12:26:15;7.70;99.90
22436;DHT22;11385;50.822;4.324;2022-12-07T12:28:56;7.50;99.90
22436;DHT22;11385;50.822;4.324;2022-12-07T12:31:35;7.40;99.90
22436;DHT22;11385;50.822;4.324;2022-12-07T12:36:47;7.30;99.90
22436;DHT22;11385;50.822;4.324;2022-12-07T12:39:16;7.30;99.90
22436;DHT22;11385;50.822;4.324;2022-12-07T12:41:54;7.20;99.90
22436;DHT22;11385;50.822;4.324;2022-12-07T12:44:40;7.10;99.90
22436;DHT22;11385;50.822;4.324;2022-12-07T12:52:49;7.30;99.90
22436;DHT22;11385;50.822;4.324;2022-12-07T12:55:19;7.30;99.90
22436;DHT22;11385;50.822;4.324;2022-12-07T12:58:21;7.40;99.90
22436;DHT22;11385;50.822;4.324;2022-12-07T13:00:22;7.40;99.90
22436;DHT22;11385;50.822;4.324;2022-12-07T13:02:52;7.40;99.90
22436;DHT22;11385;50.822;4.324;2022-12-07T13:05:22;7.50;99.90
22436;DHT22;11385;50.822;4.324;2022-12-07T13:07:56;7.70;99.90
22436;DHT22;11385;50.822;4.324;2022-12-07T13:10:36;7.90;99.90
22436;DHT22;11385;50.822;4.324;2022-12-07T13:16:36;7.90;99.90
22436;DHT22;11385;50.822;4.324;2022-12-07T13:21:41;7.80;99.90
22436;DHT22;11385;50.822;4.324;2022-12-07T13:24:10;7.80;99.90
22436;DHT22;11385;50.822;4.324;2022-12-07T13:26:43;7.60;99.90
22436;DHT22;11385;50.822;4.324;2022-12-07T13:29:15;7.60;99.90
22436;DHT22;11385;50.822;4.324;2022-12-07T13:31:51;7.80;99.90
22436;DHT22;11385;50.822;4.324;2022-12-07T13:34:28;7.90;99.90
22436;DHT22;11385;50.822;4.324;2022-12-07T13:36:56;7.90;99.90
22436;DHT22;11385;50.822;4.324;2022-12-07T13:39:24;7.90;99.90
22436;DHT22;11385;50.822;4.324;2022-12-07T13:41:55;7.60;99.90
22436;DHT22;11385;50.822;4.324;2022-12-07T13:44:24;7.70;99.90
22436;DHT22;11385;50.822;4.324;2022-12-07T13:47:14;7.70;99.90
22436;DHT22;11385;50.822;4.324;2022-12-07T13:49:50;7.80;99.90
22436;DHT22;11385;50.822;4.324;2022-12-07T13:52:20;7.90;99.90
22436;DHT22;11385;50.822;4.324;2022-12-07T13:55:20;7.70;99.90
22436;DHT22;11385;50.822;4.324;2022-12-07T13:57:34;7.60;99.90
22436;DHT22;11385;50.822;4.324;2022-12-07T14:00:05;7.70;99.90
22436;DHT22;11385;50.822;4.324;2022-12-07T14:02:34;7.70;99.90
22436;DHT22;11385;50.822;4.324;2022-12-07T14:05:13;7.50;99.90
22436;DHT22;11385;50.822;4.324;2022-12-07T14:07:53;7.60;99.90
22436;DHT22;11385;50.822;4.324;2022-12-07T14:10:26;7.40;99.90
22436;DHT22;11385;50.822;4.324;2022-12-07T14:12:54;7.50;99.90
22436;DHT22;11385;50.822;4.324;2022-12-07T14:15:26;7.30;99.90
22436;DHT22;11385;50.822;4.324;2022-12-07T14:17:54;7.20;99.90
22436;DHT22;11385;50.822;4.324;2022-12-07T14:20:28;7.00;99.90
22436;DHT22;11385;50.822;4.324;2022-12-07T14:22:56;6.90;99.90
22436;DHT22;11385;50.822;4.324;2022-12-07T14:25:26;7.00;99.90
22436;DHT22;11385;50.822;4.324;2022-12-07T14:27:58;7.00;99.90
22436;DHT22;11385;50.822;4.324;2022-12-07T14:30:29;7.00;99.90
22436;DHT22;11385;50.822;4.324;2022-12-07T14:32:58;7.00;99.90
22436;DHT22;11385;50.822;4.324;2022-12-07T14:35:26;7.00;99.90
22436;DHT22;11385;50.822;4.324;2022-12-07T14:37:53;7.10;99.90
22436;DHT22;11385;50.822;4.324;2022-12-07T14:40:22;6.80;99.90
22436;DHT22;11385;50.822;4.324;2022-12-07T14:42:52;6.50;99.90
22436;DHT22;11385;50.822;4.324;2022-12-07T14:45:22;6.30;99.90
22436;DHT22;11385;50.822;4.324;2022-12-07T14:47:49;6.40;99.90
22436;DHT22;11385;50.822;4.324;2022-12-07T14:50:18;6.30;99.90
22436;DHT22;11385;50.822;4.324;2022-12-07T14:52:51;6.20;99.90
22436;DHT22;11385;50.822;4.324;2022-12-07T14:55:27;6.00;99.90
22436;DHT22;11385;50.822;4.324;2022-12-07T14:57:55;6.00;99.90
22436;DHT22;11385;50.822;4.324;2022-12-07T15:00:23;5.90;99.90
22436;DHT22;11385;50.822;4.324;2022-12-07T15:02:51;6.10;99.90
22436;DHT22;11385;50.822;4.324;2022-12-07T15:05:18;6.30;99.90
22436;DHT22;11385;50.822;4.324;2022-12-07T15:07:46;6.30;99.90
22436;DHT22;11385;50.822;4.324;2022-12-07T15:10:20;6.40;99.90
22436;DHT22;11385;50.822;4.324;2022-12-07T15:12:46;6.50;99.90
22436;DHT22;11385;50.822;4.324;2022-12-07T15:15:13;6.50;99.90
22436;DHT22;11385;50.822;4.324;2022-12-07T15:17:40;6.60;99.90
22436;DHT22;11385;50.822;4.324;2022-12-07T15:20:12;6.40;99.90
22436;DHT22;11385;50.822;4.324;2022-12-07T15:22:39;6.40;99.90
22436;DHT22;11385;50.822;4.324;2022-12-07T15:25:06;6.40;99.90
22436;DHT22;11385;50.822;4.324;2022-12-07T15:27:33;6.40;99.90
22436;DHT22;11385;50.822;4.324;2022-12-07T15:30:00;6.50;99.90
22436;DHT22;11385;50.822;4.324;2022-12-07T15:32:28;6.70;99.90
22436;DHT22;11385;50.822;4.324;2022-12-07T15:34:55;6.70;99.90
22436;DHT22;11385;50.822;4.324;2022-12-07T15:37:21;6.60;99.90
22436;DHT22;11385;50.822;4.324;2022-12-07T15:39:48;6.60;99.90
22436;DHT22;11385;50.822;4.324;2022-12-07T15:42:15;6.50;99.90
22436;DHT22;11385;50.822;4.324;2022-12-07T15:44:41;6.30;99.90
22436;DHT22;11385;50.822;4.324;2022-12-07T15:47:14;6.30;99.90
22436;DHT22;11385;50.822;4.324;2022-12-07T15:49:40;6.40;99.90
22436;DHT22;11385;50.822;4.324;2022-12-07T15:52:07;6.20;99.90
22436;DHT22;11385;50.822;4.324;2022-12-07T15:54:33;6.20;99.90
22436;DHT22;11385;50.822;4.324;2022-12-07T15:57:00;6.30;99.90
22436;DHT22;11385;50.822;4.324;2022-12-07T15:59:28;6.50;99.90
22436;DHT22;11385;50.822;4.324;2022-12-07T16:01:55;6.60;99.90
22436;DHT22;11385;50.822;4.324;2022-12-07T16:04:22;6.60;99.90
22436;DHT22;11385;50.822;4.324;2022-12-07T16:06:49;6.40;99.90
22436;DHT22;11385;50.822;4.324;2022-12-07T16:09:17;6.40;99.90
22436;DHT22;11385;50.822;4.324;2022-12-07T16:11:44;6.20;99.90
22436;DHT22;11385;50.822;4.324;2022-12-07T16:14:10;6.20;99.90
22436;DHT22;11385;50.822;4.324;2022-12-07T16:16:37;6.30;99.90
22436;DHT22;11385;50.822;4.324;2022-12-07T16:19:05;6.30;99.90
22436;DHT22;11385;50.822;4.324;2022-12-07T16:21:33;6.20;99.90
22436;DHT22;11385;50.822;4.324;2022-12-07T16:24:01;6.20;99.90
22436;DHT22;11385;50.822;4.324;2022-12-07T16:26:28;6.20;99.90
22436;DHT22;11385;50.822;4.324;2022-12-07T16:28:55;6.10;99.90
22436;DHT22;11385;50.822;4.324;2022-12-07T16:31:24;6.20;99.90
22436;DHT22;11385;50.822;4.324;2022-12-07T16:33:54;6.20;99.90
22436;DHT22;11385;50.822;4.324;2022-12-07T16:36:21;6.20;99.90
22436;DHT22;11385;50.822;4.324;2022-12-07T16:38:50;6.20;99.90
22436;DHT22;11385;50.822;4.324;2022-12-07T16:41:17;6.20;99.90
22436;DHT22;11385;50.822;4.324;2022-12-07T16:43:44;6.30;99.90
22436;DHT22;11385;50.822;4.324;2022-12-07T16:46:10;6.30;99.90